sensor_id;sensor_type;location;lat;lon;timestamp;P1;durP1;ratioP1;P2;durP2;ratioP2
77938;SDS011;67136;47.546;21.630;2023-07-31T00:10:10;5.90;;;3.00;;
77938;SDS011;67136;47.546;21.630;2023-07-31T00:13:13;6.45;;;3.55;;
77938;SDS011;67136;47.546;21.630;2023-07-31T00:16:16;5.47;;;3.33;;
77938;SDS011;67136;47.546;21.630;2023-07-31T00:19:18;5.97;;;3.50;;
77938;SDS011;67136;47.546;21.630;2023-07-31T00:22:21;5.07;;;3.53;;
77938;SDS011;67136;47.546;21.630;2023-07-31T00:25:24;4.10;;;3.40;;
77938;SDS011;67136;47.546;21.630;2023-07-31T00:28:26;6.62;;;3.15;;
77938;SDS011;67136;47.546;21.630;2023-07-31T00:31:29;5.95;;;3.45;;
77938;SDS011;67136;47.546;21.630;2023-07-31T00:34:32;4.53;;;3.37;;
77938;SDS011;67136;47.546;21.630;2023-07-31T00:37:35;4.80;;;3.25;;
77938;SDS011;67136;47.546;21.630;2023-07-31T00:40:37;4.93;;;3.03;;
77938;SDS011;67136;47.546;21.630;2023-07-31T00:43:40;5.68;;;3.30;;
77938;SDS011;67136;47.546;21.630;2023-07-31T00:46:43;4.53;;;3.30;;
77938;SDS011;67136;47.546;21.630;2023-07-31T00:49:45;6.78;;;3.42;;
77938;SDS011;67136;47.546;21.630;2023-07-31T00:52:48;5.07;;;3.25;;
77938;SDS011;67136;47.546;21.630;2023-07-31T00:55:52;4.33;;;3.27;;
77938;SDS011;67136;47.546;21.630;2023-07-31T00:58:55;4.00;;;2.97;;
77938;SDS011;67136;47.546;21.630;2023-07-31T01:01:58;5.90;;;3.58;;
77938;SDS011;67136;47.546;21.630;2023-07-31T01:05:01;4.10;;;3.17;;
77938;SDS011;67136;47.546;21.630;2023-07-31T01:08:12;4.25;;;3.12;;
77938;SDS011;67136;47.546;21.630;2023-07-31T01:18:06;4.97;;;3.30;;
77938;SDS011;67136;47.546;21.630;2023-07-31T01:21:17;5.57;;;3.20;;
77938;SDS011;67136;47.546;21.630;2023-07-31T01:27:51;4.67;;;3.30;;
77938;SDS011;67136;47.546;21.630;2023-07-31T01:31:15;5.18;;;3.25;;
77938;SDS011;67136;47.546;21.630;2023-07-31T01:34:22;6.45;;;3.50;;
77938;SDS011;67136;47.546;21.630;2023-07-31T01:37:29;3.95;;;3.30;;
77938;SDS011;67136;47.546;21.630;2023-07-31T01:40:36;3.97;;;3.28;;
77938;SDS011;67136;47.546;21.630;2023-07-31T01:43:38;4.57;;;3.10;;
77938;SDS011;67136;47.546;21.630;2023-07-31T01:46:41;6.05;;;3.20;;
77938;SDS011;67136;47.546;21.630;2023-07-31T01:49:44;4.65;;;3.33;;
77938;SDS011;67136;47.546;21.630;2023-07-31T01:52:47;5.03;;;3.70;;
77938;SDS011;67136;47.546;21.630;2023-07-31T01:55:49;6.12;;;3.70;;
77938;SDS011;67136;47.546;21.630;2023-07-31T01:58:52;6.00;;;3.40;;
77938;SDS011;67136;47.546;21.630;2023-07-31T02:01:54;4.10;;;3.17;;
77938;SDS011;67136;47.546;21.630;2023-07-31T02:04:58;5.50;;;3.92;;
77938;SDS011;67136;47.546;21.630;2023-07-31T02:08:00;6.75;;;3.70;;
77938;SDS011;67136;47.546;21.630;2023-07-31T02:11:07;7.93;;;3.70;;
77938;SDS011;67136;47.546;21.630;2023-07-31T02:14:09;5.63;;;3.83;;
77938;SDS011;67136;47.546;21.630;2023-07-31T02:17:12;5.22;;;3.70;;
77938;SDS011;67136;47.546;21.630;2023-07-31T02:20:15;5.30;;;3.58;;
77938;SDS011;67136;47.546;21.630;2023-07-31T02:23:18;5.35;;;3.70;;
77938;SDS011;67136;47.546;21.630;2023-07-31T02:26:21;4.20;;;3.60;;
77938;SDS011;67136;47.546;21.630;2023-07-31T02:29:24;5.13;;;3.67;;
77938;SDS011;67136;47.546;21.630;2023-07-31T02:32:26;5.55;;;3.78;;
77938;SDS011;67136;47.546;21.630;2023-07-31T02:35:29;5.87;;;3.78;;
77938;SDS011;67136;47.546;21.630;2023-07-31T02:38:31;7.70;;;4.18;;
77938;SDS011;67136;47.546;21.630;2023-07-31T02:41:34;5.40;;;3.97;;
77938;SDS011;67136;47.546;21.630;2023-07-31T02:44:37;6.33;;;4.73;;
77938;SDS011;67136;47.546;21.630;2023-07-31T02:47:40;5.43;;;3.70;;
77938;SDS011;67136;47.546;21.630;2023-07-31T02:50:42;6.53;;;4.10;;
77938;SDS011;67136;47.546;21.630;2023-07-31T02:53:45;6.12;;;4.25;;
77938;SDS011;67136;47.546;21.630;2023-07-31T02:56:48;8.05;;;4.35;;
77938;SDS011;67136;47.546;21.630;2023-07-31T02:59:51;6.73;;;4.50;;
77938;SDS011;67136;47.546;21.630;2023-07-31T03:02:53;5.80;;;4.05;;
77938;SDS011;67136;47.546;21.630;2023-07-31T03:05:57;5.43;;;4.50;;
77938;SDS011;67136;47.546;21.630;2023-07-31T03:08:59;5.05;;;4.28;;
77938;SDS011;67136;47.546;21.630;2023-07-31T03:12:02;7.90;;;4.18;;
77938;SDS011;67136;47.546;21.630;2023-07-31T03:15:05;5.80;;;4.30;;
77938;SDS011;67136;47.546;21.630;2023-07-31T03:18:09;8.32;;;4.50;;
77938;SDS011;67136;47.546;21.630;2023-07-31T03:21:12;7.47;;;4.57;;
77938;SDS011;67136;47.546;21.630;2023-07-31T03:24:15;7.40;;;5.10;;
77938;SDS011;67136;47.546;21.630;2023-07-31T03:27:18;8.68;;;5.10;;
77938;SDS011;67136;47.546;21.630;2023-07-31T03:30:21;8.73;;;5.50;;
77938;SDS011;67136;47.546;21.630;2023-07-31T03:33:23;7.85;;;5.50;;
77938;SDS011;67136;47.546;21.630;2023-07-31T03:36:26;9.02;;;5.28;;
77938;SDS011;67136;47.546;21.630;2023-07-31T03:39:29;7.12;;;5.32;;
77938;SDS011;67136;47.546;21.630;2023-07-31T03:42:32;8.93;;;5.62;;
77938;SDS011;67136;47.546;21.630;2023-07-31T03:45:34;7.63;;;5.40;;
77938;SDS011;67136;47.546;21.630;2023-07-31T03:48:38;7.15;;;5.25;;
77938;SDS011;67136;47.546;21.630;2023-07-31T03:51:40;8.95;;;5.82;;
77938;SDS011;67136;47.546;21.630;2023-07-31T03:54:44;8.48;;;5.32;;
77938;SDS011;67136;47.546;21.630;2023-07-31T03:57:46;9.98;;;5.78;;
77938;SDS011;67136;47.546;21.630;2023-07-31T04:00:49;10.50;;;6.27;;
77938;SDS011;67136;47.546;21.630;2023-07-31T04:03:52;12.07;;;6.62;;
77938;SDS011;67136;47.546;21.630;2023-07-31T04:06:55;8.55;;;6.10;;
77938;SDS011;67136;47.546;21.630;2023-07-31T04:09:57;20.20;;;6.78;;
77938;SDS011;67136;47.546;21.630;2023-07-31T04:13:00;8.15;;;6.07;;
77938;SDS011;67136;47.546;21.630;2023-07-31T04:16:03;9.00;;;6.37;;
77938;SDS011;67136;47.546;21.630;2023-07-31T04:19:05;9.65;;;6.20;;
77938;SDS011;67136;47.546;21.630;2023-07-31T04:22:08;12.68;;;6.85;;
77938;SDS011;67136;47.546;21.630;2023-07-31T04:25:10;12.18;;;6.18;;
77938;SDS011;67136;47.546;21.630;2023-07-31T04:28:13;8.98;;;6.53;;
77938;SDS011;67136;47.546;21.630;2023-07-31T04:31:16;11.70;;;6.87;;
77938;SDS011;67136;47.546;21.630;2023-07-31T04:34:19;11.40;;;6.57;;
77938;SDS011;67136;47.546;21.630;2023-07-31T04:37:22;8.75;;;6.32;;
77938;SDS011;67136;47.546;21.630;2023-07-31T04:40:24;11.12;;;6.90;;
77938;SDS011;67136;47.546;21.630;2023-07-31T04:43:27;9.45;;;6.45;;
77938;SDS011;67136;47.546;21.630;2023-07-31T04:46:30;8.37;;;5.73;;
77938;SDS011;67136;47.546;21.630;2023-07-31T04:49:32;9.32;;;6.45;;
77938;SDS011;67136;47.546;21.630;2023-07-31T04:52:35;9.43;;;6.00;;
77938;SDS011;67136;47.546;21.630;2023-07-31T04:55:38;7.43;;;5.70;;
77938;SDS011;67136;47.546;21.630;2023-07-31T04:58:40;7.60;;;5.30;;
77938;SDS011;67136;47.546;21.630;2023-07-31T05:01:43;7.20;;;5.20;;
77938;SDS011;67136;47.546;21.630;2023-07-31T05:04:47;6.87;;;5.07;;
77938;SDS011;67136;47.546;21.630;2023-07-31T05:07:50;6.05;;;4.68;;
77938;SDS011;67136;47.546;21.630;2023-07-31T05:10:52;8.80;;;5.15;;
77938;SDS011;67136;47.546;21.630;2023-07-31T05:13:55;9.10;;;4.50;;
77938;SDS011;67136;47.546;21.630;2023-07-31T05:16:57;6.07;;;4.30;;
77938;SDS011;67136;47.546;21.630;2023-07-31T05:20:01;7.78;;;4.53;;
77938;SDS011;67136;47.546;21.630;2023-07-31T05:23:04;7.22;;;4.82;;
77938;SDS011;67136;47.546;21.630;2023-07-31T05:26:07;7.97;;;3.97;;
77938;SDS011;67136;47.546;21.630;2023-07-31T05:29:12;6.70;;;3.80;;
77938;SDS011;67136;47.546;21.630;2023-07-31T05:32:14;7.97;;;3.80;;
77938;SDS011;67136;47.546;21.630;2023-07-31T05:35:17;4.65;;;3.08;;
77938;SDS011;67136;47.546;21.630;2023-07-31T05:38:20;8.20;;;3.40;;
77938;SDS011;67136;47.546;21.630;2023-07-31T05:41:22;4.90;;;3.15;;
77938;SDS011;67136;47.546;21.630;2023-07-31T05:44:25;5.22;;;2.83;;
77938;SDS011;67136;47.546;21.630;2023-07-31T05:47:28;6.37;;;2.70;;
77938;SDS011;67136;47.546;21.630;2023-07-31T05:50:31;4.10;;;2.97;;
77938;SDS011;67136;47.546;21.630;2023-07-31T05:53:34;5.35;;;3.10;;
77938;SDS011;67136;47.546;21.630;2023-07-31T05:56:38;4.45;;;2.87;;
77938;SDS011;67136;47.546;21.630;2023-07-31T05:59:41;3.95;;;2.50;;
77938;SDS011;67136;47.546;21.630;2023-07-31T06:02:43;4.20;;;2.50;;
77938;SDS011;67136;47.546;21.630;2023-07-31T06:05:46;3.50;;;2.30;;
77938;SDS011;67136;47.546;21.630;2023-07-31T06:08:48;5.00;;;2.40;;
77938;SDS011;67136;47.546;21.630;2023-07-31T06:11:52;3.92;;;2.10;;
77938;SDS011;67136;47.546;21.630;2023-07-31T06:14:54;4.72;;;2.58;;
77938;SDS011;67136;47.546;21.630;2023-07-31T06:17:57;3.50;;;2.00;;
77938;SDS011;67136;47.546;21.630;2023-07-31T06:21:01;3.25;;;2.00;;
77938;SDS011;67136;47.546;21.630;2023-07-31T06:24:04;8.35;;;2.22;;
77938;SDS011;67136;47.546;21.630;2023-07-31T06:27:07;4.75;;;2.05;;
77938;SDS011;67136;47.546;21.630;2023-07-31T06:30:10;2.87;;;1.95;;
77938;SDS011;67136;47.546;21.630;2023-07-31T06:33:13;6.60;;;1.87;;
77938;SDS011;67136;47.546;21.630;2023-07-31T06:36:16;4.07;;;2.12;;
77938;SDS011;67136;47.546;21.630;2023-07-31T06:39:18;3.92;;;2.15;;
77938;SDS011;67136;47.546;21.630;2023-07-31T06:42:21;3.37;;;1.80;;
77938;SDS011;67136;47.546;21.630;2023-07-31T06:45:23;10.65;;;6.05;;
77938;SDS011;67136;47.546;21.630;2023-07-31T06:48:26;4.03;;;2.23;;
77938;SDS011;67136;47.546;21.630;2023-07-31T06:51:29;3.80;;;1.83;;
77938;SDS011;67136;47.546;21.630;2023-07-31T06:54:33;4.37;;;2.10;;
77938;SDS011;67136;47.546;21.630;2023-07-31T06:57:36;5.20;;;2.25;;
77938;SDS011;67136;47.546;21.630;2023-07-31T07:00:39;3.55;;;1.90;;
77938;SDS011;67136;47.546;21.630;2023-07-31T07:03:41;3.90;;;1.77;;
77938;SDS011;67136;47.546;21.630;2023-07-31T07:06:44;2.72;;;1.90;;
77938;SDS011;67136;47.546;21.630;2023-07-31T07:09:46;3.12;;;2.12;;
77938;SDS011;67136;47.546;21.630;2023-07-31T07:12:49;2.42;;;1.75;;
77938;SDS011;67136;47.546;21.630;2023-07-31T07:15:52;3.40;;;2.10;;
77938;SDS011;67136;47.546;21.630;2023-07-31T07:18:55;3.93;;;1.93;;
77938;SDS011;67136;47.546;21.630;2023-07-31T07:22:06;3.53;;;2.25;;
77938;SDS011;67136;47.546;21.630;2023-07-31T07:25:08;11.02;;;3.00;;
77938;SDS011;67136;47.546;21.630;2023-07-31T07:28:11;3.22;;;2.03;;
77938;SDS011;67136;47.546;21.630;2023-07-31T07:31:14;5.05;;;2.30;;
77938;SDS011;67136;47.546;21.630;2023-07-31T07:34:16;2.87;;;2.07;;
77938;SDS011;67136;47.546;21.630;2023-07-31T07:37:19;2.22;;;1.70;;
77938;SDS011;67136;47.546;21.630;2023-07-31T07:40:22;4.53;;;1.73;;
77938;SDS011;67136;47.546;21.630;2023-07-31T07:43:24;2.85;;;1.92;;
77938;SDS011;67136;47.546;21.630;2023-07-31T07:46:27;3.25;;;2.00;;
77938;SDS011;67136;47.546;21.630;2023-07-31T07:49:30;2.50;;;1.80;;
77938;SDS011;67136;47.546;21.630;2023-07-31T07:52:33;2.92;;;2.00;;
77938;SDS011;67136;47.546;21.630;2023-07-31T07:55:35;2.37;;;1.67;;
77938;SDS011;67136;47.546;21.630;2023-07-31T07:58:38;14.60;;;3.78;;
77938;SDS011;67136;47.546;21.630;2023-07-31T08:01:41;8.90;;;2.28;;
77938;SDS011;67136;47.546;21.630;2023-07-31T08:04:44;5.33;;;2.63;;
77938;SDS011;67136;47.546;21.630;2023-07-31T08:07:46;5.57;;;3.20;;
77938;SDS011;67136;47.546;21.630;2023-07-31T08:10:49;3.92;;;2.28;;
77938;SDS011;67136;47.546;21.630;2023-07-31T08:13:51;3.58;;;1.77;;
77938;SDS011;67136;47.546;21.630;2023-07-31T08:16:54;2.30;;;1.67;;
77938;SDS011;67136;47.546;21.630;2023-07-31T08:19:57;16.43;;;3.47;;
77938;SDS011;67136;47.546;21.630;2023-07-31T08:23:01;64.03;;;9.52;;
77938;SDS011;67136;47.546;21.630;2023-07-31T08:26:03;29.23;;;4.50;;
77938;SDS011;67136;47.546;21.630;2023-07-31T08:29:06;7.57;;;3.45;;
77938;SDS011;67136;47.546;21.630;2023-07-31T08:32:09;13.70;;;4.35;;
77938;SDS011;67136;47.546;21.630;2023-07-31T08:35:11;12.67;;;3.87;;
77938;SDS011;67136;47.546;21.630;2023-07-31T08:38:14;48.35;;;10.57;;
77938;SDS011;67136;47.546;21.630;2023-07-31T08:41:16;9.18;;;2.30;;
77938;SDS011;67136;47.546;21.630;2023-07-31T08:44:19;2.95;;;1.80;;
77938;SDS011;67136;47.546;21.630;2023-07-31T08:47:22;2.53;;;1.60;;
77938;SDS011;67136;47.546;21.630;2023-07-31T08:50:26;3.13;;;1.90;;
77938;SDS011;67136;47.546;21.630;2023-07-31T08:53:30;13.10;;;2.72;;
77938;SDS011;67136;47.546;21.630;2023-07-31T08:56:32;2.65;;;1.65;;
77938;SDS011;67136;47.546;21.630;2023-07-31T08:59:36;2.17;;;1.60;;
77938;SDS011;67136;47.546;21.630;2023-07-31T09:02:48;3.37;;;1.98;;
77938;SDS011;67136;47.546;21.630;2023-07-31T09:06:00;4.97;;;1.97;;
77938;SDS011;67136;47.546;21.630;2023-07-31T09:09:06;4.47;;;1.77;;
77938;SDS011;67136;47.546;21.630;2023-07-31T09:12:08;3.40;;;2.12;;
77938;SDS011;67136;47.546;21.630;2023-07-31T09:15:11;2.53;;;1.80;;
77938;SDS011;67136;47.546;21.630;2023-07-31T09:18:37;3.90;;;1.77;;
77938;SDS011;67136;47.546;21.630;2023-07-31T09:21:55;3.20;;;1.70;;
77938;SDS011;67136;47.546;21.630;2023-07-31T09:25:03;2.25;;;1.58;;
77938;SDS011;67136;47.546;21.630;2023-07-31T09:28:17;4.47;;;1.60;;
77938;SDS011;67136;47.546;21.630;2023-07-31T09:31:39;5.68;;;1.58;;
77938;SDS011;67136;47.546;21.630;2023-07-31T09:34:44;3.83;;;1.80;;
77938;SDS011;67136;47.546;21.630;2023-07-31T09:37:51;2.73;;;2.00;;
77938;SDS011;67136;47.546;21.630;2023-07-31T09:40:55;3.28;;;2.10;;
77938;SDS011;67136;47.546;21.630;2023-07-31T09:44:01;2.37;;;1.77;;
77938;SDS011;67136;47.546;21.630;2023-07-31T09:47:03;5.50;;;2.03;;
77938;SDS011;67136;47.546;21.630;2023-07-31T09:50:09;9.73;;;2.45;;
77938;SDS011;67136;47.546;21.630;2023-07-31T09:53:11;11.47;;;2.50;;
77938;SDS011;67136;47.546;21.630;2023-07-31T09:56:18;7.85;;;2.20;;
77938;SDS011;67136;47.546;21.630;2023-07-31T09:59:23;5.25;;;1.87;;
77938;SDS011;67136;47.546;21.630;2023-07-31T10:02:26;2.42;;;1.73;;
77938;SDS011;67136;47.546;21.630;2023-07-31T10:08:46;4.47;;;1.67;;
77938;SDS011;67136;47.546;21.630;2023-07-31T10:11:55;4.25;;;1.50;;
77938;SDS011;67136;47.546;21.630;2023-07-31T10:15:03;2.95;;;1.80;;
77938;SDS011;67136;47.546;21.630;2023-07-31T10:18:06;11.85;;;2.37;;
77938;SDS011;67136;47.546;21.630;2023-07-31T10:21:09;28.73;;;5.03;;
77938;SDS011;67136;47.546;21.630;2023-07-31T10:24:13;2.40;;;1.67;;
77938;SDS011;67136;47.546;21.630;2023-07-31T10:27:17;4.20;;;2.00;;
77938;SDS011;67136;47.546;21.630;2023-07-31T10:30:21;3.60;;;1.90;;
77938;SDS011;67136;47.546;21.630;2023-07-31T10:33:26;3.62;;;2.00;;
77938;SDS011;67136;47.546;21.630;2023-07-31T10:36:30;2.00;;;1.60;;
77938;SDS011;67136;47.546;21.630;2023-07-31T10:39:33;3.60;;;1.37;;
77938;SDS011;67136;47.546;21.630;2023-07-31T10:42:48;4.05;;;1.87;;
77938;SDS011;67136;47.546;21.630;2023-07-31T10:45:52;3.12;;;1.87;;
77938;SDS011;67136;47.546;21.630;2023-07-31T10:49:00;3.97;;;2.00;;
77938;SDS011;67136;47.546;21.630;2023-07-31T10:52:04;2.00;;;1.50;;
77938;SDS011;67136;47.546;21.630;2023-07-31T10:55:23;7.53;;;1.73;;
77938;SDS011;67136;47.546;21.630;2023-07-31T10:58:27;2.03;;;1.40;;
77938;SDS011;67136;47.546;21.630;2023-07-31T11:05:10;2.72;;;1.55;;
77938;SDS011;67136;47.546;21.630;2023-07-31T11:08:32;1.83;;;1.50;;
77938;SDS011;67136;47.546;21.630;2023-07-31T11:11:36;2.77;;;1.30;;
77938;SDS011;67136;47.546;21.630;2023-07-31T11:14:39;2.80;;;1.55;;
77938;SDS011;67136;47.546;21.630;2023-07-31T11:17:42;3.03;;;1.60;;
77938;SDS011;67136;47.546;21.630;2023-07-31T11:20:45;2.20;;;1.58;;
77938;SDS011;67136;47.546;21.630;2023-07-31T11:23:49;2.35;;;1.70;;
77938;SDS011;67136;47.546;21.630;2023-07-31T11:26:54;2.47;;;1.50;;
77938;SDS011;67136;47.546;21.630;2023-07-31T11:30:00;1.70;;;1.50;;
77938;SDS011;67136;47.546;21.630;2023-07-31T11:33:04;2.22;;;1.75;;
77938;SDS011;67136;47.546;21.630;2023-07-31T11:36:14;4.55;;;1.80;;
77938;SDS011;67136;47.546;21.630;2023-07-31T11:39:18;3.78;;;1.73;;
77938;SDS011;67136;47.546;21.630;2023-07-31T11:42:21;4.33;;;1.80;;
77938;SDS011;67136;47.546;21.630;2023-07-31T11:45:25;5.00;;;1.60;;
77938;SDS011;67136;47.546;21.630;2023-07-31T11:48:32;3.80;;;1.60;;
77938;SDS011;67136;47.546;21.630;2023-07-31T11:51:36;3.00;;;1.35;;
77938;SDS011;67136;47.546;21.630;2023-07-31T11:54:39;2.33;;;1.90;;
77938;SDS011;67136;47.546;21.630;2023-07-31T11:57:43;2.70;;;1.50;;
77938;SDS011;67136;47.546;21.630;2023-07-31T12:00:48;3.33;;;1.87;;
77938;SDS011;67136;47.546;21.630;2023-07-31T12:03:51;4.25;;;1.77;;
77938;SDS011;67136;47.546;21.630;2023-07-31T12:06:54;3.83;;;1.80;;
77938;SDS011;67136;47.546;21.630;2023-07-31T12:10:00;3.00;;;1.73;;
77938;SDS011;67136;47.546;21.630;2023-07-31T12:16:06;1.95;;;1.60;;
77938;SDS011;67136;47.546;21.630;2023-07-31T12:19:09;5.37;;;1.70;;
77938;SDS011;67136;47.546;21.630;2023-07-31T12:22:12;3.97;;;1.62;;
77938;SDS011;67136;47.546;21.630;2023-07-31T12:25:16;2.03;;;1.60;;
77938;SDS011;67136;47.546;21.630;2023-07-31T12:28:21;2.07;;;1.87;;
77938;SDS011;67136;47.546;21.630;2023-07-31T12:31:25;2.67;;;1.70;;
77938;SDS011;67136;47.546;21.630;2023-07-31T12:34:31;6.20;;;1.80;;
77938;SDS011;67136;47.546;21.630;2023-07-31T12:37:33;5.00;;;2.00;;
77938;SDS011;67136;47.546;21.630;2023-07-31T12:40:37;6.10;;;1.90;;
77938;SDS011;67136;47.546;21.630;2023-07-31T12:43:41;1.83;;;1.40;;
77938;SDS011;67136;47.546;21.630;2023-07-31T12:46:45;3.35;;;1.48;;
77938;SDS011;67136;47.546;21.630;2023-07-31T12:49:47;3.20;;;1.75;;
77938;SDS011;67136;47.546;21.630;2023-07-31T12:52:50;2.65;;;1.70;;
77938;SDS011;67136;47.546;21.630;2023-07-31T12:55:53;2.12;;;1.60;;
77938;SDS011;67136;47.546;21.630;2023-07-31T12:58:57;7.50;;;1.90;;
77938;SDS011;67136;47.546;21.630;2023-07-31T13:01:59;3.42;;;1.62;;
77938;SDS011;67136;47.546;21.630;2023-07-31T13:05:02;4.32;;;1.87;;
77938;SDS011;67136;47.546;21.630;2023-07-31T13:08:05;3.72;;;1.60;;
77938;SDS011;67136;47.546;21.630;2023-07-31T13:11:08;4.22;;;2.20;;
77938;SDS011;67136;47.546;21.630;2023-07-31T13:14:10;2.10;;;1.80;;
77938;SDS011;67136;47.546;21.630;2023-07-31T13:17:13;4.10;;;1.70;;
77938;SDS011;67136;47.546;21.630;2023-07-31T13:20:15;3.10;;;2.10;;
77938;SDS011;67136;47.546;21.630;2023-07-31T13:23:18;2.42;;;1.70;;
77938;SDS011;67136;47.546;21.630;2023-07-31T13:26:20;2.12;;;1.92;;
77938;SDS011;67136;47.546;21.630;2023-07-31T13:29:23;2.50;;;1.90;;
77938;SDS011;67136;47.546;21.630;2023-07-31T13:32:26;4.05;;;2.00;;
77938;SDS011;67136;47.546;21.630;2023-07-31T13:35:29;2.70;;;1.80;;
77938;SDS011;67136;47.546;21.630;2023-07-31T13:38:33;6.85;;;2.00;;
77938;SDS011;67136;47.546;21.630;2023-07-31T13:41:36;5.78;;;1.80;;
77938;SDS011;67136;47.546;21.630;2023-07-31T13:44:39;2.60;;;2.00;;
77938;SDS011;67136;47.546;21.630;2023-07-31T13:47:42;2.70;;;1.77;;
77938;SDS011;67136;47.546;21.630;2023-07-31T13:50:44;2.22;;;1.65;;
77938;SDS011;67136;47.546;21.630;2023-07-31T13:53:47;5.12;;;2.10;;
77938;SDS011;67136;47.546;21.630;2023-07-31T13:56:50;3.30;;;1.73;;
77938;SDS011;67136;47.546;21.630;2023-07-31T13:59:53;3.70;;;1.73;;
77938;SDS011;67136;47.546;21.630;2023-07-31T14:02:55;5.53;;;2.00;;
77938;SDS011;67136;47.546;21.630;2023-07-31T14:05:58;2.92;;;2.03;;
77938;SDS011;67136;47.546;21.630;2023-07-31T14:09:00;5.55;;;2.08;;
77938;SDS011;67136;47.546;21.630;2023-07-31T14:12:03;4.07;;;1.55;;
77938;SDS011;67136;47.546;21.630;2023-07-31T14:15:06;2.53;;;1.60;;
77938;SDS011;67136;47.546;21.630;2023-07-31T14:18:09;2.37;;;1.80;;
77938;SDS011;67136;47.546;21.630;2023-07-31T14:21:13;7.40;;;1.77;;
77938;SDS011;67136;47.546;21.630;2023-07-31T14:24:16;4.72;;;2.03;;
77938;SDS011;67136;47.546;21.630;2023-07-31T14:27:18;5.45;;;2.00;;
77938;SDS011;67136;47.546;21.630;2023-07-31T14:30:21;8.97;;;1.97;;
77938;SDS011;67136;47.546;21.630;2023-07-31T14:33:23;4.12;;;2.10;;
77938;SDS011;67136;47.546;21.630;2023-07-31T14:36:26;8.57;;;2.08;;
77938;SDS011;67136;47.546;21.630;2023-07-31T14:39:29;2.62;;;1.90;;
77938;SDS011;67136;47.546;21.630;2023-07-31T14:42:32;4.22;;;1.80;;
77938;SDS011;67136;47.546;21.630;2023-07-31T14:45:34;4.37;;;1.60;;
77938;SDS011;67136;47.546;21.630;2023-07-31T14:48:37;1.83;;;1.37;;
77938;SDS011;67136;47.546;21.630;2023-07-31T14:51:39;3.55;;;1.70;;
77938;SDS011;67136;47.546;21.630;2023-07-31T14:54:42;1.42;;;1.20;;
77938;SDS011;67136;47.546;21.630;2023-07-31T14:57:46;3.50;;;1.60;;
77938;SDS011;67136;47.546;21.630;2023-07-31T15:00:48;2.30;;;1.60;;
77938;SDS011;67136;47.546;21.630;2023-07-31T15:03:51;2.75;;;1.55;;
77938;SDS011;67136;47.546;21.630;2023-07-31T15:06:54;3.55;;;1.50;;
77938;SDS011;67136;47.546;21.630;2023-07-31T15:09:57;1.90;;;1.40;;
77938;SDS011;67136;47.546;21.630;2023-07-31T15:13:00;3.05;;;1.30;;
77938;SDS011;67136;47.546;21.630;2023-07-31T15:16:03;1.80;;;1.40;;
77938;SDS011;67136;47.546;21.630;2023-07-31T15:19:06;2.35;;;1.48;;
77938;SDS011;67136;47.546;21.630;2023-07-31T15:22:08;2.62;;;1.30;;
77938;SDS011;67136;47.546;21.630;2023-07-31T15:25:11;4.45;;;1.50;;
77938;SDS011;67136;47.546;21.630;2023-07-31T15:28:14;2.72;;;1.20;;
77938;SDS011;67136;47.546;21.630;2023-07-31T15:31:16;2.07;;;1.10;;
77938;SDS011;67136;47.546;21.630;2023-07-31T15:34:19;3.92;;;1.17;;
77938;SDS011;67136;47.546;21.630;2023-07-31T15:37:22;2.65;;;1.50;;
77938;SDS011;67136;47.546;21.630;2023-07-31T15:40:25;3.67;;;1.60;;
77938;SDS011;67136;47.546;21.630;2023-07-31T15:43:28;3.20;;;1.48;;
77938;SDS011;67136;47.546;21.630;2023-07-31T15:46:31;3.00;;;1.20;;
77938;SDS011;67136;47.546;21.630;2023-07-31T15:49:34;2.35;;;1.20;;
77938;SDS011;67136;47.546;21.630;2023-07-31T15:52:36;1.73;;;1.23;;
77938;SDS011;67136;47.546;21.630;2023-07-31T15:55:39;2.10;;;1.35;;
77938;SDS011;67136;47.546;21.630;2023-07-31T15:58:42;1.83;;;1.30;;
77938;SDS011;67136;47.546;21.630;2023-07-31T16:01:44;5.17;;;1.30;;
77938;SDS011;67136;47.546;21.630;2023-07-31T16:04:47;2.10;;;1.40;;
77938;SDS011;67136;47.546;21.630;2023-07-31T16:07:50;1.87;;;1.37;;
77938;SDS011;67136;47.546;21.630;2023-07-31T16:10:52;2.15;;;1.37;;
77938;SDS011;67136;47.546;21.630;2023-07-31T16:13:55;3.65;;;1.30;;
77938;SDS011;67136;47.546;21.630;2023-07-31T16:16:58;2.70;;;1.40;;
77938;SDS011;67136;47.546;21.630;2023-07-31T16:20:00;2.85;;;1.17;;
77938;SDS011;67136;47.546;21.630;2023-07-31T16:23:03;4.93;;;1.77;;
77938;SDS011;67136;47.546;21.630;2023-07-31T16:26:05;2.37;;;1.27;;
77938;SDS011;67136;47.546;21.630;2023-07-31T16:29:08;2.60;;;1.55;;
77938;SDS011;67136;47.546;21.630;2023-07-31T16:32:11;1.67;;;1.30;;
77938;SDS011;67136;47.546;21.630;2023-07-31T16:35:14;1.75;;;1.40;;
77938;SDS011;67136;47.546;21.630;2023-07-31T16:38:16;2.40;;;1.20;;
77938;SDS011;67136;47.546;21.630;2023-07-31T16:41:20;4.22;;;1.33;;
77938;SDS011;67136;47.546;21.630;2023-07-31T16:44:23;4.28;;;1.60;;
77938;SDS011;67136;47.546;21.630;2023-07-31T16:47:26;1.40;;;1.20;;
77938;SDS011;67136;47.546;21.630;2023-07-31T16:50:28;2.08;;;1.30;;
77938;SDS011;67136;47.546;21.630;2023-07-31T16:53:32;2.20;;;1.50;;
77938;SDS011;67136;47.546;21.630;2023-07-31T16:56:35;3.08;;;1.52;;
77938;SDS011;67136;47.546;21.630;2023-07-31T16:59:58;2.83;;;1.35;;
77938;SDS011;67136;47.546;21.630;2023-07-31T17:03:00;3.33;;;1.30;;
77938;SDS011;67136;47.546;21.630;2023-07-31T17:06:04;5.30;;;1.33;;
77938;SDS011;67136;47.546;21.630;2023-07-31T17:09:07;1.77;;;1.42;;
77938;SDS011;67136;47.546;21.630;2023-07-31T17:12:09;1.65;;;1.40;;
77938;SDS011;67136;47.546;21.630;2023-07-31T17:15:12;3.65;;;1.55;;
77938;SDS011;67136;47.546;21.630;2023-07-31T17:18:15;2.13;;;1.30;;
77938;SDS011;67136;47.546;21.630;2023-07-31T17:21:18;1.70;;;1.15;;
77938;SDS011;67136;47.546;21.630;2023-07-31T17:24:21;2.55;;;1.20;;
77938;SDS011;67136;47.546;21.630;2023-07-31T17:27:23;3.25;;;1.33;;
77938;SDS011;67136;47.546;21.630;2023-07-31T17:30:27;3.35;;;1.17;;
77938;SDS011;67136;47.546;21.630;2023-07-31T17:33:29;3.20;;;1.20;;
77938;SDS011;67136;47.546;21.630;2023-07-31T17:36:32;2.35;;;1.10;;
77938;SDS011;67136;47.546;21.630;2023-07-31T17:39:35;4.10;;;1.35;;
77938;SDS011;67136;47.546;21.630;2023-07-31T17:42:39;1.85;;;1.17;;
77938;SDS011;67136;47.546;21.630;2023-07-31T17:45:41;2.28;;;1.37;;
77938;SDS011;67136;47.546;21.630;2023-07-31T17:48:44;1.80;;;1.50;;
77938;SDS011;67136;47.546;21.630;2023-07-31T17:51:47;4.80;;;1.23;;
77938;SDS011;67136;47.546;21.630;2023-07-31T17:54:49;3.25;;;1.10;;
77938;SDS011;67136;47.546;21.630;2023-07-31T17:57:56;3.30;;;1.30;;
77938;SDS011;67136;47.546;21.630;2023-07-31T18:00:58;2.05;;;1.20;;
77938;SDS011;67136;47.546;21.630;2023-07-31T18:04:01;2.97;;;1.40;;
77938;SDS011;67136;47.546;21.630;2023-07-31T18:07:06;5.82;;;1.40;;
77938;SDS011;67136;47.546;21.630;2023-07-31T18:10:09;2.30;;;1.23;;
77938;SDS011;67136;47.546;21.630;2023-07-31T18:13:12;2.60;;;1.40;;
77938;SDS011;67136;47.546;21.630;2023-07-31T18:16:16;6.70;;;1.30;;
77938;SDS011;67136;47.546;21.630;2023-07-31T18:19:18;2.80;;;1.47;;
77938;SDS011;67136;47.546;21.630;2023-07-31T18:22:21;3.03;;;1.27;;
77938;SDS011;67136;47.546;21.630;2023-07-31T18:25:24;3.40;;;1.60;;
77938;SDS011;67136;47.546;21.630;2023-07-31T18:28:26;4.65;;;1.70;;
77938;SDS011;67136;47.546;21.630;2023-07-31T18:31:29;3.10;;;1.55;;
77938;SDS011;67136;47.546;21.630;2023-07-31T18:34:32;3.50;;;1.60;;
77938;SDS011;67136;47.546;21.630;2023-07-31T18:37:34;3.60;;;1.62;;